sensor_id;sensor_type;location;lat;lon;timestamp;P1;durP1;ratioP1;P2;durP2;ratioP2
9960;SDS011;5021;51.506;11.320;2023-05-07T00:00:03;15.30;;;13.17;;
9960;SDS011;5021;51.506;11.320;2023-05-07T00:02:32;16.20;;;14.50;;
9960;SDS011;5021;51.506;11.320;2023-05-07T00:04:58;15.27;;;12.77;;
9960;SDS011;5021;51.506;11.320;2023-05-07T00:07:24;14.30;;;12.60;;
9960;SDS011;5021;51.506;11.320;2023-05-07T00:09:50;15.73;;;12.87;;
9960;SDS011;5021;51.506;11.320;2023-05-07T00:12:16;13.47;;;11.63;;
9960;SDS011;5021;51.506;11.320;2023-05-07T00:14:42;13.10;;;11.37;;
9960;SDS011;5021;51.506;11.320;2023-05-07T00:17:08;14.80;;;11.63;;
9960;SDS011;5021;51.506;11.320;2023-05-07T00:19:34;14.13;;;12.00;;
9960;SDS011;5021;51.506;11.320;2023-05-07T00:22:00;12.30;;;10.93;;
9960;SDS011;5021;51.506;11.320;2023-05-07T00:24:26;12.43;;;11.13;;
9960;SDS011;5021;51.506;11.320;2023-05-07T00:26:52;12.30;;;10.50;;
9960;SDS011;5021;51.506;11.320;2023-05-07T00:29:18;13.23;;;11.90;;
9960;SDS011;5021;51.506;11.320;2023-05-07T00:31:44;12.90;;;11.50;;
9960;SDS011;5021;51.506;11.320;2023-05-07T00:34:10;14.30;;;12.60;;
9960;SDS011;5021;51.506;11.320;2023-05-07T00:36:35;13.50;;;11.47;;
9960;SDS011;5021;51.506;11.320;2023-05-07T00:39:01;12.60;;;11.30;;
9960;SDS011;5021;51.506;11.320;2023-05-07T00:41:28;11.33;;;10.20;;
9960;SDS011;5021;51.506;11.320;2023-05-07T00:43:55;10.93;;;9.77;;
9960;SDS011;5021;51.506;11.320;2023-05-07T00:46:21;11.30;;;10.10;;
9960;SDS011;5021;51.506;11.320;2023-05-07T00:48:48;11.83;;;10.63;;
9960;SDS011;5021;51.506;11.320;2023-05-07T00:51:15;11.53;;;10.43;;
9960;SDS011;5021;51.506;11.320;2023-05-07T00:53:41;11.10;;;10.00;;
9960;SDS011;5021;51.506;11.320;2023-05-07T00:56:07;10.83;;;9.73;;
9960;SDS011;5021;51.506;11.320;2023-05-07T00:58:33;13.37;;;11.97;;
9960;SDS011;5021;51.506;11.320;2023-05-07T01:00:59;12.23;;;11.00;;
9960;SDS011;5021;51.506;11.320;2023-05-07T01:03:25;12.93;;;11.53;;
9960;SDS011;5021;51.506;11.320;2023-05-07T01:05:52;12.70;;;11.47;;
9960;SDS011;5021;51.506;11.320;2023-05-07T01:08:18;13.63;;;12.23;;
9960;SDS011;5021;51.506;11.320;2023-05-07T01:10:44;13.20;;;11.83;;
9960;SDS011;5021;51.506;11.320;2023-05-07T01:13:10;17.60;;;15.70;;
9960;SDS011;5021;51.506;11.320;2023-05-07T01:15:36;17.77;;;15.57;;
9960;SDS011;5021;51.506;11.320;2023-05-07T01:18:03;17.37;;;15.47;;
9960;SDS011;5021;51.506;11.320;2023-05-07T01:20:29;18.70;;;15.53;;
9960;SDS011;5021;51.506;11.320;2023-05-07T01:22:54;18.23;;;15.67;;
9960;SDS011;5021;51.506;11.320;2023-05-07T01:25:21;19.77;;;16.60;;
9960;SDS011;5021;51.506;11.320;2023-05-07T01:27:47;18.60;;;16.07;;
9960;SDS011;5021;51.506;11.320;2023-05-07T01:30:13;19.67;;;16.30;;
9960;SDS011;5021;51.506;11.320;2023-05-07T01:32:43;18.20;;;14.87;;
9960;SDS011;5021;51.506;11.320;2023-05-07T01:35:12;19.57;;;15.43;;
9960;SDS011;5021;51.506;11.320;2023-05-07T01:37:39;14.80;;;13.10;;
9960;SDS011;5021;51.506;11.320;2023-05-07T01:40:05;16.30;;;12.60;;
9960;SDS011;5021;51.506;11.320;2023-05-07T01:42:32;13.90;;;12.40;;
9960;SDS011;5021;51.506;11.320;2023-05-07T01:44:58;13.93;;;12.03;;
9960;SDS011;5021;51.506;11.320;2023-05-07T01:47:24;13.10;;;11.47;;
9960;SDS011;5021;51.506;11.320;2023-05-07T01:49:51;13.67;;;12.30;;
9960;SDS011;5021;51.506;11.320;2023-05-07T01:52:17;13.03;;;11.63;;
9960;SDS011;5021;51.506;11.320;2023-05-07T01:54:42;14.13;;;12.63;;
9960;SDS011;5021;51.506;11.320;2023-05-07T01:57:08;13.20;;;11.63;;
9960;SDS011;5021;51.506;11.320;2023-05-07T01:59:35;13.30;;;11.67;;
9960;SDS011;5021;51.506;11.320;2023-05-07T02:02:00;14.23;;;12.13;;
9960;SDS011;5021;51.506;11.320;2023-05-07T02:04:26;14.30;;;11.77;;
9960;SDS011;5021;51.506;11.320;2023-05-07T02:06:52;13.47;;;12.03;;
9960;SDS011;5021;51.506;11.320;2023-05-07T02:09:18;14.80;;;11.67;;
9960;SDS011;5021;51.506;11.320;2023-05-07T02:11:44;14.33;;;11.87;;
9960;SDS011;5021;51.506;11.320;2023-05-07T02:14:10;13.03;;;11.73;;
9960;SDS011;5021;51.506;11.320;2023-05-07T02:16:36;14.27;;;12.60;;
9960;SDS011;5021;51.506;11.320;2023-05-07T02:19:02;15.90;;;12.90;;
9960;SDS011;5021;51.506;11.320;2023-05-07T02:21:28;15.27;;;13.47;;
9960;SDS011;5021;51.506;11.320;2023-05-07T02:23:54;14.90;;;13.27;;
9960;SDS011;5021;51.506;11.320;2023-05-07T02:26:20;14.93;;;12.30;;
9960;SDS011;5021;51.506;11.320;2023-05-07T02:28:46;13.67;;;11.40;;
9960;SDS011;5021;51.506;11.320;2023-05-07T02:31:12;15.77;;;12.50;;
9960;SDS011;5021;51.506;11.320;2023-05-07T02:33:38;13.37;;;11.87;;
9960;SDS011;5021;51.506;11.320;2023-05-07T02:36:11;12.27;;;10.57;;
9960;SDS011;5021;51.506;11.320;2023-05-07T02:38:37;12.27;;;10.97;;
9960;SDS011;5021;51.506;11.320;2023-05-07T02:41:03;13.20;;;10.33;;
9960;SDS011;5021;51.506;11.320;2023-05-07T02:43:29;12.60;;;10.63;;
9960;SDS011;5021;51.506;11.320;2023-05-07T02:46:01;14.87;;;12.10;;
9960;SDS011;5021;51.506;11.320;2023-05-07T02:48:27;13.23;;;11.23;;
9960;SDS011;5021;51.506;11.320;2023-05-07T02:50:53;12.33;;;11.07;;
9960;SDS011;5021;51.506;11.320;2023-05-07T02:53:19;13.57;;;10.50;;
9960;SDS011;5021;51.506;11.320;2023-05-07T02:55:45;13.77;;;12.10;;
9960;SDS011;5021;51.506;11.320;2023-05-07T02:58:11;14.03;;;12.07;;
9960;SDS011;5021;51.506;11.320;2023-05-07T03:00:37;13.97;;;11.37;;
9960;SDS011;5021;51.506;11.320;2023-05-07T03:03:03;14.33;;;12.23;;
9960;SDS011;5021;51.506;11.320;2023-05-07T03:05:29;15.83;;;11.97;;
9960;SDS011;5021;51.506;11.320;2023-05-07T03:07:55;14.93;;;12.27;;
9960;SDS011;5021;51.506;11.320;2023-05-07T03:10:22;15.43;;;12.13;;
9960;SDS011;5021;51.506;11.320;2023-05-07T03:12:48;13.80;;;12.30;;
9960;SDS011;5021;51.506;11.320;2023-05-07T03:15:14;14.97;;;12.97;;
9960;SDS011;5021;51.506;11.320;2023-05-07T03:17:40;14.73;;;12.13;;
9960;SDS011;5021;51.506;11.320;2023-05-07T03:20:06;14.77;;;12.70;;
9960;SDS011;5021;51.506;11.320;2023-05-07T03:22:32;14.13;;;12.63;;
9960;SDS011;5021;51.506;11.320;2023-05-07T03:24:58;14.03;;;12.47;;
9960;SDS011;5021;51.506;11.320;2023-05-07T03:27:24;14.60;;;12.70;;
9960;SDS011;5021;51.506;11.320;2023-05-07T03:29:50;14.47;;;12.20;;
9960;SDS011;5021;51.506;11.320;2023-05-07T03:32:16;13.73;;;11.37;;
9960;SDS011;5021;51.506;11.320;2023-05-07T03:34:42;13.13;;;11.73;;
9960;SDS011;5021;51.506;11.320;2023-05-07T03:37:08;14.40;;;12.20;;
9960;SDS011;5021;51.506;11.320;2023-05-07T03:39:34;12.57;;;11.27;;
9960;SDS011;5021;51.506;11.320;2023-05-07T03:42:00;16.20;;;13.70;;
9960;SDS011;5021;51.506;11.320;2023-05-07T03:44:26;18.03;;;13.83;;
9960;SDS011;5021;51.506;11.320;2023-05-07T03:46:52;15.37;;;13.13;;
9960;SDS011;5021;51.506;11.320;2023-05-07T03:49:18;14.53;;;13.00;;
9960;SDS011;5021;51.506;11.320;2023-05-07T03:51:44;16.70;;;13.20;;
9960;SDS011;5021;51.506;11.320;2023-05-07T03:54:10;14.97;;;13.47;;
9960;SDS011;5021;51.506;11.320;2023-05-07T03:56:36;14.47;;;12.87;;
9960;SDS011;5021;51.506;11.320;2023-05-07T03:59:01;13.00;;;11.63;;
9960;SDS011;5021;51.506;11.320;2023-05-07T04:01:27;13.50;;;12.10;;
9960;SDS011;5021;51.506;11.320;2023-05-07T04:03:53;12.70;;;11.40;;
9960;SDS011;5021;51.506;11.320;2023-05-07T04:06:19;14.43;;;12.47;;
9960;SDS011;5021;51.506;11.320;2023-05-07T04:08:45;14.13;;;12.67;;
9960;SDS011;5021;51.506;11.320;2023-05-07T04:11:11;13.43;;;12.03;;
9960;SDS011;5021;51.506;11.320;2023-05-07T04:13:37;13.17;;;11.77;;
9960;SDS011;5021;51.506;11.320;2023-05-07T04:16:06;13.33;;;11.80;;
9960;SDS011;5021;51.506;11.320;2023-05-07T04:18:31;13.77;;;12.27;;
9960;SDS011;5021;51.506;11.320;2023-05-07T04:20:57;14.57;;;13.07;;
9960;SDS011;5021;51.506;11.320;2023-05-07T04:23:23;13.67;;;12.27;;
9960;SDS011;5021;51.506;11.320;2023-05-07T04:25:50;12.60;;;11.40;;
9960;SDS011;5021;51.506;11.320;2023-05-07T04:28:17;12.73;;;11.40;;
9960;SDS011;5021;51.506;11.320;2023-05-07T04:30:43;12.73;;;11.43;;
9960;SDS011;5021;51.506;11.320;2023-05-07T04:33:09;13.83;;;10.67;;
9960;SDS011;5021;51.506;11.320;2023-05-07T04:35:36;11.80;;;10.60;;
9960;SDS011;5021;51.506;11.320;2023-05-07T04:38:02;14.43;;;11.57;;
9960;SDS011;5021;51.506;11.320;2023-05-07T04:40:28;13.40;;;11.93;;
9960;SDS011;5021;51.506;11.320;2023-05-07T04:42:55;13.70;;;12.30;;
9960;SDS011;5021;51.506;11.320;2023-05-07T04:45:20;13.33;;;11.10;;
9960;SDS011;5021;51.506;11.320;2023-05-07T04:47:46;13.53;;;12.10;;
9960;SDS011;5021;51.506;11.320;2023-05-07T04:50:12;12.43;;;11.23;;
9960;SDS011;5021;51.506;11.320;2023-05-07T04:52:38;14.33;;;12.13;;
9960;SDS011;5021;51.506;11.320;2023-05-07T04:55:04;14.93;;;13.43;;
9960;SDS011;5021;51.506;11.320;2023-05-07T04:57:30;14.70;;;12.87;;
9960;SDS011;5021;51.506;11.320;2023-05-07T04:59:56;14.53;;;13.03;;
9960;SDS011;5021;51.506;11.320;2023-05-07T05:02:22;14.63;;;13.03;;
9960;SDS011;5021;51.506;11.320;2023-05-07T05:04:48;13.80;;;12.40;;
9960;SDS011;5021;51.506;11.320;2023-05-07T05:07:14;13.17;;;11.67;;
9960;SDS011;5021;51.506;11.320;2023-05-07T05:09:40;13.47;;;12.17;;
9960;SDS011;5021;51.506;11.320;2023-05-07T05:12:06;15.20;;;13.57;;
9960;SDS011;5021;51.506;11.320;2023-05-07T05:14:32;13.63;;;12.23;;
9960;SDS011;5021;51.506;11.320;2023-05-07T05:16:58;14.43;;;12.57;;
9960;SDS011;5021;51.506;11.320;2023-05-07T05:19:24;12.97;;;11.53;;
9960;SDS011;5021;51.506;11.320;2023-05-07T05:21:50;14.80;;;12.23;;
9960;SDS011;5021;51.506;11.320;2023-05-07T05:24:15;13.27;;;11.97;;
9960;SDS011;5021;51.506;11.320;2023-05-07T05:26:41;15.43;;;13.77;;
9960;SDS011;5021;51.506;11.320;2023-05-07T05:29:07;16.57;;;14.37;;
9960;SDS011;5021;51.506;11.320;2023-05-07T05:31:33;17.27;;;15.43;;
9960;SDS011;5021;51.506;11.320;2023-05-07T05:34:00;17.07;;;15.07;;
9960;SDS011;5021;51.506;11.320;2023-05-07T05:36:26;16.70;;;14.40;;
9960;SDS011;5021;51.506;11.320;2023-05-07T05:38:52;18.30;;;16.23;;
9960;SDS011;5021;51.506;11.320;2023-05-07T05:41:18;17.23;;;15.43;;
9960;SDS011;5021;51.506;11.320;2023-05-07T05:43:44;17.20;;;15.20;;
9960;SDS011;5021;51.506;11.320;2023-05-07T05:46:10;18.97;;;16.63;;
9960;SDS011;5021;51.506;11.320;2023-05-07T05:48:36;17.93;;;16.03;;
9960;SDS011;5021;51.506;11.320;2023-05-07T05:51:02;17.13;;;15.33;;
9960;SDS011;5021;51.506;11.320;2023-05-07T05:53:28;16.07;;;14.40;;
9960;SDS011;5021;51.506;11.320;2023-05-07T05:55:54;15.33;;;13.83;;
9960;SDS011;5021;51.506;11.320;2023-05-07T05:58:20;17.27;;;14.10;;
9960;SDS011;5021;51.506;11.320;2023-05-07T06:00:46;14.63;;;13.20;;
9960;SDS011;5021;51.506;11.320;2023-05-07T06:03:13;14.37;;;12.87;;
9960;SDS011;5021;51.506;11.320;2023-05-07T06:05:39;13.80;;;12.40;;
9960;SDS011;5021;51.506;11.320;2023-05-07T06:08:05;13.40;;;12.10;;
9960;SDS011;5021;51.506;11.320;2023-05-07T06:10:31;15.07;;;13.57;;
9960;SDS011;5021;51.506;11.320;2023-05-07T06:12:57;13.33;;;12.00;;
9960;SDS011;5021;51.506;11.320;2023-05-07T06:15:22;13.23;;;11.93;;
9960;SDS011;5021;51.506;11.320;2023-05-07T06:17:48;12.50;;;11.30;;
9960;SDS011;5021;51.506;11.320;2023-05-07T06:20:14;13.77;;;12.37;;
9960;SDS011;5021;51.506;11.320;2023-05-07T06:22:40;14.23;;;12.73;;
9960;SDS011;5021;51.506;11.320;2023-05-07T06:25:06;14.83;;;13.10;;
9960;SDS011;5021;51.506;11.320;2023-05-07T06:27:32;14.10;;;12.40;;
9960;SDS011;5021;51.506;11.320;2023-05-07T06:29:58;13.07;;;11.77;;
9960;SDS011;5021;51.506;11.320;2023-05-07T06:32:25;13.30;;;11.90;;
9960;SDS011;5021;51.506;11.320;2023-05-07T06:34:51;13.40;;;11.80;;
9960;SDS011;5021;51.506;11.320;2023-05-07T06:37:17;14.17;;;12.77;;
9960;SDS011;5021;51.506;11.320;2023-05-07T06:39:42;13.70;;;12.17;;
9960;SDS011;5021;51.506;11.320;2023-05-07T06:42:08;13.00;;;11.80;;
9960;SDS011;5021;51.506;11.320;2023-05-07T06:44:34;13.73;;;12.27;;
9960;SDS011;5021;51.506;11.320;2023-05-07T06:47:00;12.27;;;10.97;;
9960;SDS011;5021;51.506;11.320;2023-05-07T06:49:26;14.23;;;12.73;;
9960;SDS011;5021;51.506;11.320;2023-05-07T06:51:52;12.33;;;11.03;;
9960;SDS011;5021;51.506;11.320;2023-05-07T06:54:18;14.93;;;13.43;;
9960;SDS011;5021;51.506;11.320;2023-05-07T06:56:45;14.03;;;12.60;;
9960;SDS011;5021;51.506;11.320;2023-05-07T06:59:11;15.33;;;13.83;;
9960;SDS011;5021;51.506;11.320;2023-05-07T07:01:36;14.30;;;12.77;;
9960;SDS011;5021;51.506;11.320;2023-05-07T07:04:02;15.67;;;13.47;;
9960;SDS011;5021;51.506;11.320;2023-05-07T07:06:28;20.47;;;14.03;;
9960;SDS011;5021;51.506;11.320;2023-05-07T07:08:56;15.47;;;13.80;;
9960;SDS011;5021;51.506;11.320;2023-05-07T07:11:22;15.37;;;13.40;;
9960;SDS011;5021;51.506;11.320;2023-05-07T07:13:48;15.27;;;13.77;;
9960;SDS011;5021;51.506;11.320;2023-05-07T07:16:16;15.37;;;13.87;;
9960;SDS011;5021;51.506;11.320;2023-05-07T07:18:42;16.80;;;14.97;;
9960;SDS011;5021;51.506;11.320;2023-05-07T07:21:08;16.13;;;14.53;;
9960;SDS011;5021;51.506;11.320;2023-05-07T07:23:34;15.80;;;14.10;;
9960;SDS011;5021;51.506;11.320;2023-05-07T07:26:00;14.80;;;13.30;;
9960;SDS011;5021;51.506;11.320;2023-05-07T07:28:26;16.37;;;13.87;;
9960;SDS011;5021;51.506;11.320;2023-05-07T07:30:52;15.20;;;13.63;;
9960;SDS011;5021;51.506;11.320;2023-05-07T07:33:18;15.63;;;13.93;;
9960;SDS011;5021;51.506;11.320;2023-05-07T07:35:44;14.97;;;13.37;;
9960;SDS011;5021;51.506;11.320;2023-05-07T07:38:10;13.93;;;12.53;;
9960;SDS011;5021;51.506;11.320;2023-05-07T07:40:36;13.50;;;12.00;;
9960;SDS011;5021;51.506;11.320;2023-05-07T07:43:02;14.03;;;12.53;;
9960;SDS011;5021;51.506;11.320;2023-05-07T07:45:28;14.73;;;13.13;;
9960;SDS011;5021;51.506;11.320;2023-05-07T07:47:54;14.97;;;13.43;;
9960;SDS011;5021;51.506;11.320;2023-05-07T07:50:20;14.43;;;13.00;;
9960;SDS011;5021;51.506;11.320;2023-05-07T07:52:45;15.87;;;14.17;;
9960;SDS011;5021;51.506;11.320;2023-05-07T07:55:11;17.17;;;15.37;;
9960;SDS011;5021;51.506;11.320;2023-05-07T07:57:38;20.57;;;15.27;;
9960;SDS011;5021;51.506;11.320;2023-05-07T08:00:04;17.03;;;15.33;;
9960;SDS011;5021;51.506;11.320;2023-05-07T08:02:32;17.20;;;15.40;;
9960;SDS011;5021;51.506;11.320;2023-05-07T08:04:57;17.70;;;15.80;;
9960;SDS011;5021;51.506;11.320;2023-05-07T08:07:23;19.00;;;16.93;;
9960;SDS011;5021;51.506;11.320;2023-05-07T08:09:49;19.13;;;17.07;;
9960;SDS011;5021;51.506;11.320;2023-05-07T08:12:15;18.03;;;16.23;;
9960;SDS011;5021;51.506;11.320;2023-05-07T08:14:41;18.53;;;16.60;;
9960;SDS011;5021;51.506;11.320;2023-05-07T08:17:07;18.13;;;16.23;;
9960;SDS011;5021;51.506;11.320;2023-05-07T08:19:35;17.97;;;16.07;;
9960;SDS011;5021;51.506;11.320;2023-05-07T08:22:02;19.70;;;16.47;;
9960;SDS011;5021;51.506;11.320;2023-05-07T08:24:29;16.40;;;14.80;;
9960;SDS011;5021;51.506;11.320;2023-05-07T08:26:55;15.97;;;14.37;;
9960;SDS011;5021;51.506;11.320;2023-05-07T08:29:21;15.30;;;13.87;;
9960;SDS011;5021;51.506;11.320;2023-05-07T08:31:47;16.07;;;14.47;;
9960;SDS011;5021;51.506;11.320;2023-05-07T08:34:13;14.70;;;13.30;;
9960;SDS011;5021;51.506;11.320;2023-05-07T08:36:39;14.37;;;12.97;;
9960;SDS011;5021;51.506;11.320;2023-05-07T08:39:06;13.50;;;12.20;;
9960;SDS011;5021;51.506;11.320;2023-05-07T08:41:32;13.50;;;12.10;;
9960;SDS011;5021;51.506;11.320;2023-05-07T08:43:58;13.73;;;12.33;;
9960;SDS011;5021;51.506;11.320;2023-05-07T08:46:28;12.27;;;11.07;;
9960;SDS011;5021;51.506;11.320;2023-05-07T08:48:55;11.67;;;10.50;;
9960;SDS011;5021;51.506;11.320;2023-05-07T08:51:21;13.17;;;11.77;;
9960;SDS011;5021;51.506;11.320;2023-05-07T08:53:48;11.87;;;10.67;;
9960;SDS011;5021;51.506;11.320;2023-05-07T08:56:15;12.27;;;11.07;;
9960;SDS011;5021;51.506;11.320;2023-05-07T08:58:44;12.73;;;10.33;;
9960;SDS011;5021;51.506;11.320;2023-05-07T09:01:14;11.27;;;10.17;;
9960;SDS011;5021;51.506;11.320;2023-05-07T09:03:40;11.20;;;10.20;;
9960;SDS011;5021;51.506;11.320;2023-05-07T09:06:07;13.47;;;12.00;;
9960;SDS011;5021;51.506;11.320;2023-05-07T09:08:33;11.90;;;10.70;;
9960;SDS011;5021;51.506;11.320;2023-05-07T09:10:59;10.03;;;9.13;;
9960;SDS011;5021;51.506;11.320;2023-05-07T09:13:27;10.57;;;9.40;;
9960;SDS011;5021;51.506;11.320;2023-05-07T09:15:53;12.43;;;11.17;;
9960;SDS011;5021;51.506;11.320;2023-05-07T09:18:19;12.20;;;11.00;;
9960;SDS011;5021;51.506;11.320;2023-05-07T09:20:45;12.43;;;11.23;;
9960;SDS011;5021;51.506;11.320;2023-05-07T09:23:11;13.17;;;11.77;;
9960;SDS011;5021;51.506;11.320;2023-05-07T09:25:37;13.50;;;12.10;;
9960;SDS011;5021;51.506;11.320;2023-05-07T09:28:03;15.13;;;13.63;;
9960;SDS011;5021;51.506;11.320;2023-05-07T09:30:34;13.90;;;12.50;;
9960;SDS011;5021;51.506;11.320;2023-05-07T09:33:01;14.10;;;12.70;;
9960;SDS011;5021;51.506;11.320;2023-05-07T09:35:27;14.00;;;12.70;;
9960;SDS011;5021;51.506;11.320;2023-05-07T09:37:55;14.00;;;12.63;;
9960;SDS011;5021;51.506;11.320;2023-05-07T09:40:25;14.83;;;13.33;;
9960;SDS011;5021;51.506;11.320;2023-05-07T09:42:51;14.80;;;13.47;;
9960;SDS011;5021;51.506;11.320;2023-05-07T09:45:27;17.80;;;15.17;;
9960;SDS011;5021;51.506;11.320;2023-05-07T09:47:53;17.20;;;15.60;;
9960;SDS011;5021;51.506;11.320;2023-05-07T09:50:20;17.43;;;15.73;;
9960;SDS011;5021;51.506;11.320;2023-05-07T09:52:47;17.30;;;15.50;;
9960;SDS011;5021;51.506;11.320;2023-05-07T09:55:13;18.57;;;16.57;;
9960;SDS011;5021;51.506;11.320;2023-05-07T09:57:40;15.17;;;13.40;;
9960;SDS011;5021;51.506;11.320;2023-05-07T10:00:07;14.70;;;13.17;;
9960;SDS011;5021;51.506;11.320;2023-05-07T10:02:34;13.73;;;12.43;;
9960;SDS011;5021;51.506;11.320;2023-05-07T10:05:01;11.87;;;10.80;;
9960;SDS011;5021;51.506;11.320;2023-05-07T10:07:27;12.77;;;11.57;;
9960;SDS011;5021;51.506;11.320;2023-05-07T10:09:54;13.90;;;12.47;;
9960;SDS011;5021;51.506;11.320;2023-05-07T10:12:20;11.73;;;10.63;;
9960;SDS011;5021;51.506;11.320;2023-05-07T10:14:46;11.20;;;10.20;;
9960;SDS011;5021;51.506;11.320;2023-05-07T10:17:13;11.80;;;10.70;;
9960;SDS011;5021;51.506;11.320;2023-05-07T10:19:39;11.27;;;10.27;;
9960;SDS011;5021;51.506;11.320;2023-05-07T10:22:05;11.03;;;10.03;;
9960;SDS011;5021;51.506;11.320;2023-05-07T10:24:32;10.23;;;9.33;;
9960;SDS011;5021;51.506;11.320;2023-05-07T10:27:05;10.43;;;9.53;;
9960;SDS011;5021;51.506;11.320;2023-05-07T10:32:14;11.30;;;10.30;;
9960;SDS011;5021;51.506;11.320;2023-05-07T10:34:44;10.33;;;9.33;;
9960;SDS011;5021;51.506;11.320;2023-05-07T10:37:11;11.33;;;10.23;;
9960;SDS011;5021;51.506;11.320;2023-05-07T10:39:37;10.13;;;9.13;;
9960;SDS011;5021;51.506;11.320;2023-05-07T10:42:09;9.97;;;9.10;;
9960;SDS011;5021;51.506;11.320;2023-05-07T10:44:36;9.23;;;8.53;;
9960;SDS011;5021;51.506;11.320;2023-05-07T10:47:06;9.83;;;8.93;;
9960;SDS011;5021;51.506;11.320;2023-05-07T10:49:34;9.53;;;8.73;;
9960;SDS011;5021;51.506;11.320;2023-05-07T10:52:16;8.67;;;7.87;;
9960;SDS011;5021;51.506;11.320;2023-05-07T10:54:43;9.10;;;8.30;;
9960;SDS011;5021;51.506;11.320;2023-05-07T10:57:32;8.97;;;8.27;;
9960;SDS011;5021;51.506;11.320;2023-05-07T10:59:55;9.07;;;8.27;;
9960;SDS011;5021;51.506;11.320;2023-05-07T11:02:21;8.63;;;7.93;;
9960;SDS011;5021;51.506;11.320;2023-05-07T11:07:32;8.13;;;7.43;;
9960;SDS011;5021;51.506;11.320;2023-05-07T11:10:01;8.77;;;7.97;;
9960;SDS011;5021;51.506;11.320;2023-05-07T11:15:04;9.30;;;8.47;;
9960;SDS011;5021;51.506;11.320;2023-05-07T11:17:30;7.93;;;7.23;;
9960;SDS011;5021;51.506;11.320;2023-05-07T11:19:56;8.83;;;7.93;;
9960;SDS011;5021;51.506;11.320;2023-05-07T11:25:04;6.87;;;6.30;;
9960;SDS011;5021;51.506;11.320;2023-05-07T11:27:30;7.80;;;7.10;;
9960;SDS011;5021;51.506;11.320;2023-05-07T11:29:56;8.00;;;7.30;;
9960;SDS011;5021;51.506;11.320;2023-05-07T11:32:23;8.47;;;7.57;;
9960;SDS011;5021;51.506;11.320;2023-05-07T11:34:52;9.70;;;8.90;;
9960;SDS011;5021;51.506;11.320;2023-05-07T11:37:19;9.20;;;8.30;;
9960;SDS011;5021;51.506;11.320;2023-05-07T11:39:45;8.67;;;7.87;;
9960;SDS011;5021;51.506;11.320;2023-05-07T11:42:30;9.23;;;8.43;;
9960;SDS011;5021;51.506;11.320;2023-05-07T11:44:56;9.93;;;9.03;;
9960;SDS011;5021;51.506;11.320;2023-05-07T11:47:22;9.80;;;8.90;;
9960;SDS011;5021;51.506;11.320;2023-05-07T11:49:48;9.50;;;8.60;;
9960;SDS011;5021;51.506;11.320;2023-05-07T11:52:15;9.53;;;8.73;;
9960;SDS011;5021;51.506;11.320;2023-05-07T11:54:41;10.23;;;9.33;;
9960;SDS011;5021;51.506;11.320;2023-05-07T11:57:06;9.87;;;8.93;;
9960;SDS011;5021;51.506;11.320;2023-05-07T11:59:39;10.23;;;9.20;;
9960;SDS011;5021;51.506;11.320;2023-05-07T12:02:06;12.20;;;11.00;;
9960;SDS011;5021;51.506;11.320;2023-05-07T12:04:32;11.07;;;10.07;;
9960;SDS011;5021;51.506;11.320;2023-05-07T12:06:58;11.53;;;10.47;;
9960;SDS011;5021;51.506;11.320;2023-05-07T12:09:25;11.77;;;10.77;;
9960;SDS011;5021;51.506;11.320;2023-05-07T12:11:51;11.47;;;10.37;;
9960;SDS011;5021;51.506;11.320;2023-05-07T12:14:18;11.27;;;10.27;;
9960;SDS011;5021;51.506;11.320;2023-05-07T12:16:44;11.30;;;10.30;;
9960;SDS011;5021;51.506;11.320;2023-05-07T12:19:10;10.07;;;9.17;;
9960;SDS011;5021;51.506;11.320;2023-05-07T12:21:39;12.53;;;11.33;;
9960;SDS011;5021;51.506;11.320;2023-05-07T12:24:06;11.37;;;10.37;;
9960;SDS011;5021;51.506;11.320;2023-05-07T12:26:32;12.70;;;11.50;;
9960;SDS011;5021;51.506;11.320;2023-05-07T12:28:58;11.33;;;10.33;;
9960;SDS011;5021;51.506;11.320;2023-05-07T12:31:27;11.40;;;10.40;;
9960;SDS011;5021;51.506;11.320;2023-05-07T12:33:53;10.83;;;9.83;;
9960;SDS011;5021;51.506;11.320;2023-05-07T12:36:18;10.80;;;9.80;;
9960;SDS011;5021;51.506;11.320;2023-05-07T12:38:46;12.10;;;10.90;;
9960;SDS011;5021;51.506;11.320;2023-05-07T12:41:14;11.50;;;10.50;;
9960;SDS011;5021;51.506;11.320;2023-05-07T12:43:41;11.83;;;10.73;;
9960;SDS011;5021;51.506;11.320;2023-05-07T12:46:09;12.43;;;11.33;;
9960;SDS011;5021;51.506;11.320;2023-05-07T12:48:38;12.17;;;11.07;;
9960;SDS011;5021;51.506;11.320;2023-05-07T12:51:08;11.77;;;10.67;;
9960;SDS011;5021;51.506;11.320;2023-05-07T12:53:39;12.43;;;11.33;;
9960;SDS011;5021;51.506;11.320;2023-05-07T12:56:05;12.53;;;11.40;;
9960;SDS011;5021;51.506;11.320;2023-05-07T12:58:33;11.23;;;10.03;;
9960;SDS011;5021;51.506;11.320;2023-05-07T13:01:00;11.60;;;10.53;;
9960;SDS011;5021;51.506;11.320;2023-05-07T13:03:31;10.50;;;9.60;;
9960;SDS011;5021;51.506;11.320;2023-05-07T13:06:01;10.67;;;9.67;;
9960;SDS011;5021;51.506;11.320;2023-05-07T13:08:28;8.87;;;8.13;;
9960;SDS011;5021;51.506;11.320;2023-05-07T13:10:55;10.30;;;9.30;;
9960;SDS011;5021;51.506;11.320;2023-05-07T13:13:21;9.63;;;8.83;;
9960;SDS011;5021;51.506;11.320;2023-05-07T13:15:47;8.90;;;8.10;;
9960;SDS011;5021;51.506;11.320;2023-05-07T13:18:13;9.97;;;9.07;;
9960;SDS011;5021;51.506;11.320;2023-05-07T13:20:39;8.93;;;8.13;;
9960;SDS011;5021;51.506;11.320;2023-05-07T13:23:05;8.73;;;8.03;;
9960;SDS011;5021;51.506;11.320;2023-05-07T13:25:31;8.97;;;8.17;;
9960;SDS011;5021;51.506;11.320;2023-05-07T13:27:57;9.10;;;8.20;;
9960;SDS011;5021;51.506;11.320;2023-05-07T13:30:23;11.13;;;10.10;;
9960;SDS011;5021;51.506;11.320;2023-05-07T13:32:49;10.37;;;9.47;;
9960;SDS011;5021;51.506;11.320;2023-05-07T13:35:17;10.80;;;9.80;;
9960;SDS011;5021;51.506;11.320;2023-05-07T13:37:42;10.93;;;9.97;;
9960;SDS011;5021;51.506;11.320;2023-05-07T13:40:09;11.70;;;10.63;;
9960;SDS011;5021;51.506;11.320;2023-05-07T13:42:35;11.17;;;10.17;;
9960;SDS011;5021;51.506;11.320;2023-05-07T13:45:01;11.80;;;10.80;;
9960;SDS011;5021;51.506;11.320;2023-05-07T13:47:29;10.13;;;9.17;;
9960;SDS011;5021;51.506;11.320;2023-05-07T13:49:56;8.70;;;7.90;;
9960;SDS011;5021;51.506;11.320;2023-05-07T13:52:21;9.03;;;8.23;;
9960;SDS011;5021;51.506;11.320;2023-05-07T13:54:47;8.63;;;7.83;;
9960;SDS011;5021;51.506;11.320;2023-05-07T13:57:13;8.30;;;7.50;;
9960;SDS011;5021;51.506;11.320;2023-05-07T13:59:40;8.50;;;7.70;;
9960;SDS011;5021;51.506;11.320;2023-05-07T14:02:06;7.27;;;6.57;;
9960;SDS011;5021;51.506;11.320;2023-05-07T14:04:32;7.10;;;6.50;;
9960;SDS011;5021;51.506;11.320;2023-05-07T14:06:58;7.43;;;6.73;;
9960;SDS011;5021;51.506;11.320;2023-05-07T14:09:24;7.17;;;6.43;;
9960;SDS011;5021;51.506;11.320;2023-05-07T14:11:50;7.13;;;6.53;;
9960;SDS011;5021;51.506;11.320;2023-05-07T14:14:17;7.70;;;6.90;;
9960;SDS011;5021;51.506;11.320;2023-05-07T14:16:43;7.63;;;6.93;;
9960;SDS011;5021;51.506;11.320;2023-05-07T14:19:09;7.97;;;7.23;;
9960;SDS011;5021;51.506;11.320;2023-05-07T14:21:35;8.00;;;7.17;;
9960;SDS011;5021;51.506;11.320;2023-05-07T14:24:02;7.53;;;6.47;;
9960;SDS011;5021;51.506;11.320;2023-05-07T14:26:28;8.43;;;7.73;;
9960;SDS011;5021;51.506;11.320;2023-05-07T14:28:54;8.57;;;7.77;;
9960;SDS011;5021;51.506;11.320;2023-05-07T14:31:22;9.13;;;8.20;;
9960;SDS011;5021;51.506;11.320;2023-05-07T14:33:48;9.67;;;8.77;;
9960;SDS011;5021;51.506;11.320;2023-05-07T14:36:15;9.43;;;8.53;;
9960;SDS011;5021;51.506;11.320;2023-05-07T14:38:41;9.10;;;8.20;;
9960;SDS011;5021;51.506;11.320;2023-05-07T14:41:07;9.80;;;8.90;;
9960;SDS011;5021;51.506;11.320;2023-05-07T14:43:33;9.00;;;8.13;;
9960;SDS011;5021;51.506;11.320;2023-05-07T14:45:59;9.63;;;8.63;;